sensor_id;sensor_type;location;lat;lon;timestamp;pressure;altitude;pressure_sealevel;temperature;humidity
55171;BME280;41060;47.510;8.680;2024-01-27T00:01:21;98731.72;;;10.60;53.89
55171;BME280;41060;47.510;8.680;2024-01-27T00:04:04;98736.91;;;10.62;54.05
55171;BME280;41060;47.510;8.680;2024-01-27T00:06:46;98735.06;;;10.64;53.66
55171;BME280;41060;47.510;8.680;2024-01-27T00:09:28;98743.16;;;10.61;53.08
55171;BME280;41060;47.510;8.680;2024-01-27T00:12:09;98748.31;;;10.64;52.90
55171;BME280;41060;47.510;8.680;2024-01-27T00:14:51;98735.59;;;10.70;52.58
55171;BME280;41060;47.510;8.680;2024-01-27T00:17:32;98743.81;;;10.82;53.05
55171;BME280;41060;47.510;8.680;2024-01-27T00:20:17;98754.56;;;10.79;52.48
55171;BME280;41060;47.510;8.680;2024-01-27T00:23:01;98740.31;;;10.81;52.28
55171;BME280;41060;47.510;8.680;2024-01-27T00:25:42;98748.34;;;10.95;52.40
55171;BME280;41060;47.510;8.680;2024-01-27T00:28:24;98741.94;;;10.84;52.25
55171;BME280;41060;47.510;8.680;2024-01-27T00:31:06;98743.56;;;10.86;52.55
55171;BME280;41060;47.510;8.680;2024-01-27T00:33:47;98754.34;;;10.83;52.06
55171;BME280;41060;47.510;8.680;2024-01-27T00:36:30;98746.75;;;10.60;53.05
55171;BME280;41060;47.510;8.680;2024-01-27T00:39:12;98755.25;;;10.49;53.60
55171;BME280;41060;47.510;8.680;2024-01-27T00:41:53;98749.75;;;10.37;53.83
55171;BME280;41060;47.510;8.680;2024-01-27T00:44:35;98746.19;;;10.38;52.73
55171;BME280;41060;47.510;8.680;2024-01-27T00:47:20;98745.38;;;10.53;52.53
55171;BME280;41060;47.510;8.680;2024-01-27T00:50:01;98746.59;;;10.63;52.98
55171;BME280;41060;47.510;8.680;2024-01-27T00:52:44;98746.91;;;10.57;53.22
55171;BME280;41060;47.510;8.680;2024-01-27T00:55:26;98756.84;;;10.36;52.91
55171;BME280;41060;47.510;8.680;2024-01-27T00:58:07;98755.53;;;10.27;52.85
55171;BME280;41060;47.510;8.680;2024-01-27T01:00:50;98757.66;;;10.21;52.76
55171;BME280;41060;47.510;8.680;2024-01-27T01:03:32;98746.44;;;10.16;52.73
55171;BME280;41060;47.510;8.680;2024-01-27T01:06:16;98755.53;;;10.10;52.14
55171;BME280;41060;47.510;8.680;2024-01-27T01:08:59;98745.06;;;10.09;52.21
55171;BME280;41060;47.510;8.680;2024-01-27T01:11:41;98748.00;;;10.20;51.32
55171;BME280;41060;47.510;8.680;2024-01-27T01:14:22;98756.53;;;10.25;51.75
55171;BME280;41060;47.510;8.680;2024-01-27T01:17:04;98757.09;;;10.31;51.03
55171;BME280;41060;47.510;8.680;2024-01-27T01:19:46;98760.44;;;10.18;51.43
55171;BME280;41060;47.510;8.680;2024-01-27T01:22:27;98763.81;;;10.04;51.34
55171;BME280;41060;47.510;8.680;2024-01-27T01:25:10;98770.66;;;9.91;51.86
55171;BME280;41060;47.510;8.680;2024-01-27T01:27:52;98778.06;;;9.84;51.50
55171;BME280;41060;47.510;8.680;2024-01-27T01:30:33;98776.69;;;9.94;50.98
55171;BME280;41060;47.510;8.680;2024-01-27T01:33:15;98784.91;;;9.88;51.48
55171;BME280;41060;47.510;8.680;2024-01-27T01:35:57;98799.38;;;9.81;51.45
55171;BME280;41060;47.510;8.680;2024-01-27T01:38:38;98806.69;;;9.76;51.24
55171;BME280;41060;47.510;8.680;2024-01-27T01:41:22;98802.94;;;9.63;52.06
55171;BME280;41060;47.510;8.680;2024-01-27T01:44:04;98792.56;;;9.59;52.12
55171;BME280;41060;47.510;8.680;2024-01-27T01:46:45;98797.31;;;9.52;52.69
55171;BME280;41060;47.510;8.680;2024-01-27T01:49:27;98799.75;;;9.38;52.91
55171;BME280;41060;47.510;8.680;2024-01-27T01:52:09;98799.19;;;9.31;52.80
55171;BME280;41060;47.510;8.680;2024-01-27T01:54:51;98799.19;;;9.31;52.62
55171;BME280;41060;47.510;8.680;2024-01-27T01:57:34;98797.31;;;9.14;53.32
55171;BME280;41060;47.510;8.680;2024-01-27T02:00:16;98800.97;;;9.12;53.02
55171;BME280;41060;47.510;8.680;2024-01-27T02:02:58;98798.91;;;9.18;52.90
55171;BME280;41060;47.510;8.680;2024-01-27T02:05:40;98797.88;;;9.21;52.84
55171;BME280;41060;47.510;8.680;2024-01-27T02:08:22;98803.06;;;9.24;52.24
55171;BME280;41060;47.510;8.680;2024-01-27T02:11:04;98800.69;;;9.18;52.68
55171;BME280;41060;47.510;8.680;2024-01-27T02:13:47;98799.19;;;9.12;52.31
55171;BME280;41060;47.510;8.680;2024-01-27T02:16:29;98803.06;;;9.05;52.38
55171;BME280;41060;47.510;8.680;2024-01-27T02:19:11;98807.31;;;9.08;52.35
55171;BME280;41060;47.510;8.680;2024-01-27T02:21:53;98804.19;;;9.00;52.59
55171;BME280;41060;47.510;8.680;2024-01-27T02:24:36;98809.97;;;9.08;52.34
55171;BME280;41060;47.510;8.680;2024-01-27T02:27:17;98812.09;;;9.00;51.95
55171;BME280;41060;47.510;8.680;2024-01-27T02:29:59;98809.47;;;9.00;51.88
55171;BME280;41060;47.510;8.680;2024-01-27T02:32:42;98809.97;;;8.89;51.96
55171;BME280;41060;47.510;8.680;2024-01-27T02:35:24;98822.31;;;8.89;52.51
55171;BME280;41060;47.510;8.680;2024-01-27T02:38:06;98824.03;;;8.90;52.05
55171;BME280;41060;47.510;8.680;2024-01-27T02:40:49;98819.88;;;8.84;52.00
55171;BME280;41060;47.510;8.680;2024-01-27T02:43:35;98832.16;;;8.85;52.14
55171;BME280;41060;47.510;8.680;2024-01-27T02:46:20;98827.91;;;8.83;51.78
55171;BME280;41060;47.510;8.680;2024-01-27T02:49:10;98824.16;;;8.68;51.62
55171;BME280;41060;47.510;8.680;2024-01-27T02:51:55;98830.88;;;8.55;52.59
55171;BME280;41060;47.510;8.680;2024-01-27T02:54:41;98821.88;;;8.60;52.13
55171;BME280;41060;47.510;8.680;2024-01-27T02:57:28;98812.22;;;8.59;52.00
55171;BME280;41060;47.510;8.680;2024-01-27T03:00:13;98827.38;;;8.54;52.03
55171;BME280;41060;47.510;8.680;2024-01-27T03:02:59;98827.38;;;8.54;52.01
55171;BME280;41060;47.510;8.680;2024-01-27T03:05:45;98818.97;;;8.26;52.17
55171;BME280;41060;47.510;8.680;2024-01-27T03:08:30;98833.03;;;8.26;52.61
55171;BME280;41060;47.510;8.680;2024-01-27T03:11:15;98830.44;;;8.25;52.57
55171;BME280;41060;47.510;8.680;2024-01-27T03:14:02;98832.63;;;8.15;52.34
55171;BME280;41060;47.510;8.680;2024-01-27T03:16:51;98835.88;;;8.22;52.21
55171;BME280;41060;47.510;8.680;2024-01-27T03:19:37;98830.59;;;8.02;52.41
55171;BME280;41060;47.510;8.680;2024-01-27T03:22:22;98839.91;;;7.88;52.72
55171;BME280;41060;47.510;8.680;2024-01-27T03:25:09;98841.94;;;7.60;53.35
55171;BME280;41060;47.510;8.680;2024-01-27T03:27:54;98836.00;;;7.33;53.96
55171;BME280;41060;47.510;8.680;2024-01-27T03:30:41;98837.94;;;7.28;54.16
55171;BME280;41060;47.510;8.680;2024-01-27T03:33:26;98851.88;;;7.08;54.85
55171;BME280;41060;47.510;8.680;2024-01-27T03:36:14;98851.88;;;7.08;54.33
55171;BME280;41060;47.510;8.680;2024-01-27T03:39:00;98853.19;;;7.20;54.12
55171;BME280;41060;47.510;8.680;2024-01-27T03:41:45;98863.94;;;7.37;54.13
55171;BME280;41060;47.510;8.680;2024-01-27T03:44:31;98860.03;;;7.47;53.43
55171;BME280;41060;47.510;8.680;2024-01-27T03:47:18;98804.91;;;7.19;53.25
55171;BME280;41060;47.510;8.680;2024-01-27T03:50:04;98845.72;;;7.31;53.33
55171;BME280;41060;47.510;8.680;2024-01-27T03:52:49;98870.19;;;7.35;53.27
55171;BME280;41060;47.510;8.680;2024-01-27T03:55:35;98875.88;;;7.24;53.55
55171;BME280;41060;47.510;8.680;2024-01-27T03:58:20;98865.91;;;7.32;53.35
55171;BME280;41060;47.510;8.680;2024-01-27T04:01:05;98869.63;;;7.27;53.10
55171;BME280;41060;47.510;8.680;2024-01-27T04:03:52;98879.03;;;7.34;53.34
55171;BME280;41060;47.510;8.680;2024-01-27T04:06:38;98878.97;;;7.35;53.27
55171;BME280;41060;47.510;8.680;2024-01-27T04:09:23;98878.66;;;7.43;52.81
55171;BME280;41060;47.510;8.680;2024-01-27T04:12:11;98867.78;;;7.50;52.80
55171;BME280;41060;47.510;8.680;2024-01-27T04:14:58;98869.47;;;7.53;52.58
55171;BME280;41060;47.510;8.680;2024-01-27T04:17:43;98879.16;;;7.52;52.55
55171;BME280;41060;47.510;8.680;2024-01-27T04:20:30;98878.47;;;7.47;52.54
55171;BME280;41060;47.510;8.680;2024-01-27T04:23:17;98871.22;;;7.31;53.41
55171;BME280;41060;47.510;8.680;2024-01-27T04:26:03;98872.56;;;7.19;53.30
55171;BME280;41060;47.510;8.680;2024-01-27T04:28:50;98880.56;;;7.16;53.55
55171;BME280;41060;47.510;8.680;2024-01-27T04:31:39;98875.75;;;7.27;53.34
55171;BME280;41060;47.510;8.680;2024-01-27T04:34:25;98893.16;;;7.31;52.93
55171;BME280;41060;47.510;8.680;2024-01-27T04:37:11;98892.16;;;7.35;53.17
55171;BME280;41060;47.510;8.680;2024-01-27T04:39:57;98896.56;;;7.35;52.55
55171;BME280;41060;47.510;8.680;2024-01-27T04:42:42;98897.72;;;7.28;52.69
55171;BME280;41060;47.510;8.680;2024-01-27T04:45:28;98899.69;;;7.21;52.54
55171;BME280;41060;47.510;8.680;2024-01-27T04:48:13;98900.16;;;7.09;52.68
55171;BME280;41060;47.510;8.680;2024-01-27T04:50:59;98900.84;;;7.14;52.68
55171;BME280;41060;47.510;8.680;2024-01-27T04:53:46;98895.50;;;7.15;52.30
55171;BME280;41060;47.510;8.680;2024-01-27T04:56:34;98879.41;;;7.00;52.44
55171;BME280;41060;47.510;8.680;2024-01-27T04:59:20;98895.50;;;6.92;52.70
55171;BME280;41060;47.510;8.680;2024-01-27T05:02:05;98895.97;;;6.80;53.23
55171;BME280;41060;47.510;8.680;2024-01-27T05:04:50;98894.88;;;6.85;52.93
55171;BME280;41060;47.510;8.680;2024-01-27T05:07:36;98895.59;;;6.91;53.06
55171;BME280;41060;47.510;8.680;2024-01-27T05:10:23;98900.78;;;6.92;52.58
55171;BME280;41060;47.510;8.680;2024-01-27T05:13:12;98879.53;;;6.73;52.89
55171;BME280;41060;47.510;8.680;2024-01-27T05:15:57;98899.13;;;6.90;52.72
55171;BME280;41060;47.510;8.680;2024-01-27T05:18:42;98894.81;;;6.87;52.60
55171;BME280;41060;47.510;8.680;2024-01-27T05:21:28;98899.56;;;6.77;53.07
55171;BME280;41060;47.510;8.680;2024-01-27T05:24:13;98898.53;;;6.81;53.04
55171;BME280;41060;47.510;8.680;2024-01-27T05:27:00;98895.72;;;6.86;53.00
55171;BME280;41060;47.510;8.680;2024-01-27T05:29:45;98896.66;;;6.85;52.63
55171;BME280;41060;47.510;8.680;2024-01-27T05:32:31;98901.81;;;6.88;52.76
55171;BME280;41060;47.510;8.680;2024-01-27T05:35:16;98897.41;;;6.89;52.46
55171;BME280;41060;47.510;8.680;2024-01-27T05:38:01;98903.81;;;6.81;52.12
55171;BME280;41060;47.510;8.680;2024-01-27T05:40:47;98882.72;;;6.58;52.45
55171;BME280;41060;47.510;8.680;2024-01-27T05:43:35;98899.00;;;6.44;52.93
55171;BME280;41060;47.510;8.680;2024-01-27T05:46:20;98898.72;;;6.52;53.23
55171;BME280;41060;47.510;8.680;2024-01-27T05:49:06;98889.66;;;6.61;52.91
55171;BME280;41060;47.510;8.680;2024-01-27T05:51:51;98887.56;;;6.69;53.02
55171;BME280;41060;47.510;8.680;2024-01-27T05:54:36;98886.63;;;6.71;52.77
55171;BME280;41060;47.510;8.680;2024-01-27T05:57:24;98898.78;;;6.75;52.56
55171;BME280;41060;47.510;8.680;2024-01-27T06:00:12;98904.09;;;6.74;52.82
55171;BME280;41060;47.510;8.680;2024-01-27T06:02:58;98902.31;;;6.74;52.72
55171;BME280;41060;47.510;8.680;2024-01-27T06:05:43;98903.09;;;6.76;52.38
55171;BME280;41060;47.510;8.680;2024-01-27T06:08:28;98903.97;;;6.77;52.01
55171;BME280;41060;47.510;8.680;2024-01-27T06:11:14;98910.47;;;6.42;52.94
55171;BME280;41060;47.510;8.680;2024-01-27T06:13:59;98905.63;;;6.30;53.30
55171;BME280;41060;47.510;8.680;2024-01-27T06:16:46;98907.38;;;6.31;53.22
55171;BME280;41060;47.510;8.680;2024-01-27T06:19:31;98890.16;;;6.21;53.18
55171;BME280;41060;47.510;8.680;2024-01-27T06:22:17;98901.03;;;6.36;52.82
55171;BME280;41060;47.510;8.680;2024-01-27T06:25:03;98908.28;;;6.30;52.96
55171;BME280;41060;47.510;8.680;2024-01-27T06:27:48;98899.41;;;6.32;52.97
55171;BME280;41060;47.510;8.680;2024-01-27T06:30:33;98898.41;;;6.36;53.03
55171;BME280;41060;47.510;8.680;2024-01-27T06:33:20;98902.84;;;6.34;52.88
55171;BME280;41060;47.510;8.680;2024-01-27T06:36:06;98899.31;;;6.35;52.58
55171;BME280;41060;47.510;8.680;2024-01-27T06:38:52;98902.84;;;6.34;52.73
55171;BME280;41060;47.510;8.680;2024-01-27T06:41:38;98902.19;;;6.28;52.56
55171;BME280;41060;47.510;8.680;2024-01-27T06:44:23;98906.28;;;6.10;52.86
55171;BME280;41060;47.510;8.680;2024-01-27T06:47:09;98913.72;;;5.97;53.07
55171;BME280;41060;47.510;8.680;2024-01-27T06:49:55;98921.97;;;5.87;53.17
55171;BME280;41060;47.510;8.680;2024-01-27T06:52:40;98924.53;;;5.88;52.92
55171;BME280;41060;47.510;8.680;2024-01-27T06:55:26;98924.63;;;5.87;52.96
55171;BME280;41060;47.510;8.680;2024-01-27T06:58:11;98937.50;;;5.94;53.60
55171;BME280;41060;47.510;8.680;2024-01-27T07:00:57;98932.97;;;5.99;53.30
55171;BME280;41060;47.510;8.680;2024-01-27T07:03:42;98920.91;;;5.92;53.25
55171;BME280;41060;47.510;8.680;2024-01-27T07:06:30;98934.84;;;5.66;53.33
55171;BME280;41060;47.510;8.680;2024-01-27T07:09:15;98927.66;;;5.44;53.28
55171;BME280;41060;47.510;8.680;2024-01-27T07:12:01;98936.38;;;5.46;53.51
55171;BME280;41060;47.510;8.680;2024-01-27T07:14:46;98929.25;;;5.49;53.69
55171;BME280;41060;47.510;8.680;2024-01-27T07:17:31;98925.44;;;5.59;53.45
55171;BME280;41060;47.510;8.680;2024-01-27T07:20:17;98925.69;;;5.80;54.02
55171;BME280;41060;47.510;8.680;2024-01-27T07:23:06;98921.31;;;6.06;56.03
55171;BME280;41060;47.510;8.680;2024-01-27T07:25:52;98928.75;;;6.20;55.77
55171;BME280;41060;47.510;8.680;2024-01-27T07:28:38;98929.38;;;6.28;55.02
55171;BME280;41060;47.510;8.680;2024-01-27T07:31:23;98930.91;;;6.34;54.24
55171;BME280;41060;47.510;8.680;2024-01-27T07:34:10;98930.34;;;6.51;52.95
55171;BME280;41060;47.510;8.680;2024-01-27T07:36:56;98924.88;;;6.57;52.45
55171;BME280;41060;47.510;8.680;2024-01-27T07:39:43;98931.16;;;6.53;52.66
55171;BME280;41060;47.510;8.680;2024-01-27T07:42:28;98931.38;;;6.47;52.44
55171;BME280;41060;47.510;8.680;2024-01-27T07:45:13;98934.59;;;6.30;52.56
55171;BME280;41060;47.510;8.680;2024-01-27T07:47:59;98929.44;;;6.25;53.08
55171;BME280;41060;47.510;8.680;2024-01-27T07:50:45;98925.19;;;6.23;53.45
55171;BME280;41060;47.510;8.680;2024-01-27T07:53:33;98934.97;;;6.18;53.46
55171;BME280;41060;47.510;8.680;2024-01-27T07:56:19;98937.69;;;6.16;53.76
55171;BME280;41060;47.510;8.680;2024-01-27T07:59:04;98949.63;;;6.25;53.56
55171;BME280;41060;47.510;8.680;2024-01-27T08:01:50;98951.97;;;6.34;53.61
55171;BME280;41060;47.510;8.680;2024-01-27T08:04:35;98945.72;;;6.38;53.88
55171;BME280;41060;47.510;8.680;2024-01-27T08:07:02;98943.00;;;6.39;53.66
55171;BME280;41060;47.510;8.680;2024-01-27T08:09:35;98930.56;;;6.44;53.92
55171;BME280;41060;47.510;8.680;2024-01-27T08:12:04;98939.06;;;6.53;53.57
55171;BME280;41060;47.510;8.680;2024-01-27T08:14:31;98948.56;;;6.57;53.65
55171;BME280;41060;47.510;8.680;2024-01-27T08:16:58;98940.88;;;6.51;53.63
55171;BME280;41060;47.510;8.680;2024-01-27T08:19:26;98940.63;;;6.58;53.47
55171;BME280;41060;47.510;8.680;2024-01-27T08:21:53;98932.47;;;6.66;53.61
55171;BME280;41060;47.510;8.680;2024-01-27T08:24:19;98935.72;;;6.72;53.74
55171;BME280;41060;47.510;8.680;2024-01-27T08:26:48;98942.66;;;6.75;53.51
55171;BME280;41060;47.510;8.680;2024-01-27T08:29:16;98940.63;;;6.83;53.31
55171;BME280;41060;47.510;8.680;2024-01-27T08:31:43;98936.97;;;6.87;53.43
55171;BME280;41060;47.510;8.680;2024-01-27T08:34:10;98942.22;;;6.87;53.46
55171;BME280;41060;47.510;8.680;2024-01-27T08:36:37;98918.91;;;6.76;53.43
55171;BME280;41060;47.510;8.680;2024-01-27T08:39:04;98942.91;;;6.92;53.07
55171;BME280;41060;47.510;8.680;2024-01-27T08:41:33;98906.00;;;6.69;53.35
55171;BME280;41060;47.510;8.680;2024-01-27T08:44:00;98937.63;;;6.92;53.12
55171;BME280;41060;47.510;8.680;2024-01-27T08:46:28;98936.69;;;6.95;53.25
55171;BME280;41060;47.510;8.680;2024-01-27T08:48:55;98935.81;;;6.94;53.09
55171;BME280;41060;47.510;8.680;2024-01-27T08:51:22;98930.56;;;6.94;52.96
55171;BME280;41060;47.510;8.680;2024-01-27T08:53:48;98946.44;;;6.91;53.55
55171;BME280;41060;47.510;8.680;2024-01-27T08:56:16;98938.44;;;6.94;53.45
55171;BME280;41060;47.510;8.680;2024-01-27T08:58:46;98939.94;;;7.01;53.56
55171;BME280;41060;47.510;8.680;2024-01-27T09:01:13;98938.56;;;7.14;53.02
55171;BME280;41060;47.510;8.680;2024-01-27T09:03:44;98936.13;;;7.10;52.92
55171;BME280;41060;47.510;8.680;2024-01-27T09:06:11;98938.22;;;7.00;53.04
55171;BME280;41060;47.510;8.680;2024-01-27T09:08:38;98943.13;;;7.11;52.81
55171;BME280;41060;47.510;8.680;2024-01-27T09:11:05;98943.84;;;7.14;53.19
55171;BME280;41060;47.510;8.680;2024-01-27T09:13:32;98947.19;;;7.19;53.26
55171;BME280;41060;47.510;8.680;2024-01-27T09:16:00;98942.41;;;6.82;53.90
55171;BME280;41060;47.510;8.680;2024-01-27T09:18:27;98936.50;;;6.99;53.66
55171;BME280;41060;47.510;8.680;2024-01-27T09:20:55;98930.63;;;7.16;53.42
55171;BME280;41060;47.510;8.680;2024-01-27T09:23:25;98940.69;;;7.28;53.94
55171;BME280;41060;47.510;8.680;2024-01-27T09:25:52;98941.22;;;7.38;53.56
55171;BME280;41060;47.510;8.680;2024-01-27T09:28:19;98936.72;;;7.41;53.79
55171;BME280;41060;47.510;8.680;2024-01-27T09:30:46;98935.59;;;7.47;53.45
55171;BME280;41060;47.510;8.680;2024-01-27T09:33:13;98940.53;;;7.56;53.07
55171;BME280;41060;47.510;8.680;2024-01-27T09:35:40;98935.56;;;7.72;53.00
55171;BME280;41060;47.510;8.680;2024-01-27T09:38:08;98941.84;;;7.68;52.99
55171;BME280;41060;47.510;8.680;2024-01-27T09:40:38;98942.13;;;7.37;53.77
55171;BME280;41060;47.510;8.680;2024-01-27T09:43:08;98919.78;;;7.00;54.35
55171;BME280;41060;47.510;8.680;2024-01-27T09:45:38;98935.78;;;7.19;54.18
55171;BME280;41060;47.510;8.680;2024-01-27T09:48:07;98932.09;;;7.46;53.67
55171;BME280;41060;47.510;8.680;2024-01-27T09:50:37;98934.22;;;7.60;54.45
55171;BME280;41060;47.510;8.680;2024-01-27T09:53:07;98937.69;;;7.84;54.54
55171;BME280;41060;47.510;8.680;2024-01-27T09:55:35;98926.34;;;8.04;53.43
55171;BME280;41060;47.510;8.680;2024-01-27T09:58:02;98933.47;;;8.23;52.70
55171;BME280;41060;47.510;8.680;2024-01-27T10:00:30;98926.59;;;8.39;52.04
55171;BME280;41060;47.510;8.680;2024-01-27T10:02:58;98923.50;;;8.50;53.03
55171;BME280;41060;47.510;8.680;2024-01-27T10:05:25;98927.66;;;8.56;52.84
55171;BME280;41060;47.510;8.680;2024-01-27T10:07:53;98919.41;;;8.63;52.44
55171;BME280;41060;47.510;8.680;2024-01-27T10:10:21;98928.25;;;8.62;52.44
55171;BME280;41060;47.510;8.680;2024-01-27T10:12:48;98924.91;;;8.59;53.12
55171;BME280;41060;47.510;8.680;2024-01-27T10:15:19;98921.13;;;8.85;52.10
55171;BME280;41060;47.510;8.680;2024-01-27T10:17:46;98909.22;;;8.95;51.60
55171;BME280;41060;47.510;8.680;2024-01-27T10:20:13;98897.16;;;9.08;52.16
55171;BME280;41060;47.510;8.680;2024-01-27T10:22:42;98897.56;;;9.19;51.54
55171;BME280;41060;47.510;8.680;2024-01-27T10:25:10;98892.97;;;9.04;52.02
55171;BME280;41060;47.510;8.680;2024-01-27T10:27:38;98893.59;;;8.90;52.17
55171;BME280;41060;47.510;8.680;2024-01-27T10:30:07;98893.38;;;8.95;52.85
55171;BME280;41060;47.510;8.680;2024-01-27T10:32:41;98890.84;;;9.12;52.15
55171;BME280;41060;47.510;8.680;2024-01-27T10:35:09;98890.28;;;9.24;51.99
55171;BME280;41060;47.510;8.680;2024-01-27T10:37:36;98888.28;;;9.29;52.27
55171;BME280;41060;47.510;8.680;2024-01-27T10:40:04;98895.44;;;9.46;52.10
55171;BME280;41060;47.510;8.680;2024-01-27T10:42:34;98882.22;;;9.65;50.53
55171;BME280;41060;47.510;8.680;2024-01-27T10:45:03;98885.94;;;9.61;50.50
55171;BME280;41060;47.510;8.680;2024-01-27T10:47:31;98880.28;;;9.68;50.81
55171;BME280;41060;47.510;8.680;2024-01-27T10:50:00;98880.69;;;9.78;50.22
55171;BME280;41060;47.510;8.680;2024-01-27T10:52:29;98879.72;;;9.62;48.94
55171;BME280;41060;47.510;8.680;2024-01-27T10:54:59;98884.16;;;9.42;48.92
55171;BME280;41060;47.510;8.680;2024-01-27T10:57:29;98878.63;;;9.66;49.13
55171;BME280;41060;47.510;8.680;2024-01-27T10:59:57;98871.56;;;10.02;48.48
55171;BME280;41060;47.510;8.680;2024-01-27T11:02:28;98862.75;;;10.19;47.84
55171;BME280;41060;47.510;8.680;2024-01-27T11:04:58;98862.63;;;10.22;47.70
55171;BME280;41060;47.510;8.680;2024-01-27T11:07:27;98860.50;;;10.11;47.20
55171;BME280;41060;47.510;8.680;2024-01-27T11:09:54;98853.94;;;9.84;48.40
55171;BME280;41060;47.510;8.680;2024-01-27T11:12:22;98842.69;;;10.15;47.63
55171;BME280;41060;47.510;8.680;2024-01-27T11:14:51;98826.94;;;10.29;46.67
55171;BME280;41060;47.510;8.680;2024-01-27T11:17:18;98836.81;;;10.25;47.14
55171;BME280;41060;47.510;8.680;2024-01-27T11:19:46;98826.31;;;10.41;47.53
55171;BME280;41060;47.510;8.680;2024-01-27T11:22:34;98814.56;;;10.29;47.48
55171;BME280;41060;47.510;8.680;2024-01-27T11:25:08;98813.84;;;10.43;47.59
55171;BME280;41060;47.510;8.680;2024-01-27T11:27:41;98806.63;;;10.47;47.58
55171;BME280;41060;47.510;8.680;2024-01-27T11:30:25;98798.09;;;10.40;47.76
55171;BME280;41060;47.510;8.680;2024-01-27T11:32:53;98804.56;;;10.52;47.37
55171;BME280;41060;47.510;8.680;2024-01-27T11:35:21;98814.56;;;10.29;48.38
55171;BME280;41060;47.510;8.680;2024-01-27T11:37:48;98820.88;;;10.27;48.49
55171;BME280;41060;47.510;8.680;2024-01-27T11:40:15;98825.06;;;9.97;48.39
55171;BME280;41060;47.510;8.680;2024-01-27T11:42:42;98804.28;;;9.89;49.38
55171;BME280;41060;47.510;8.680;2024-01-27T11:45:09;98824.84;;;10.01;48.79
55171;BME280;41060;47.510;8.680;2024-01-27T11:47:36;98821.88;;;10.07;48.01
55171;BME280;41060;47.510;8.680;2024-01-27T11:50:03;98819.94;;;10.28;47.81
55171;BME280;41060;47.510;8.680;2024-01-27T11:52:31;98815.31;;;10.49;47.91
55171;BME280;41060;47.510;8.680;2024-01-27T11:54:59;98824.22;;;10.30;48.07
55171;BME280;41060;47.510;8.680;2024-01-27T11:57:26;98818.53;;;10.38;47.86
55171;BME280;41060;47.510;8.680;2024-01-27T11:59:53;98823.66;;;10.41;47.66
55171;BME280;41060;47.510;8.680;2024-01-27T12:02:21;98815.09;;;10.53;47.69
55171;BME280;41060;47.510;8.680;2024-01-27T12:04:48;98803.00;;;10.65;47.24
55171;BME280;41060;47.510;8.680;2024-01-27T12:07:15;98799.94;;;10.55;47.81
55171;BME280;41060;47.510;8.680;2024-01-27T12:09:46;98799.06;;;10.22;49.08
55171;BME280;41060;47.510;8.680;2024-01-27T12:12:13;98805.84;;;10.27;48.86
55171;BME280;41060;47.510;8.680;2024-01-27T12:14:40;98786.44;;;10.27;47.95
55171;BME280;41060;47.510;8.680;2024-01-27T12:17:10;98808.44;;;10.62;47.91
55171;BME280;41060;47.510;8.680;2024-01-27T12:19:36;98805.91;;;10.43;47.79
55171;BME280;41060;47.510;8.680;2024-01-27T12:22:04;98792.41;;;10.48;47.73
55171;BME280;41060;47.510;8.680;2024-01-27T12:24:31;98801.41;;;10.78;47.40
55171;BME280;41060;47.510;8.680;2024-01-27T12:27:00;98801.91;;;10.69;47.35
55171;BME280;41060;47.510;8.680;2024-01-27T12:29:27;98804.28;;;10.91;47.12
55171;BME280;41060;47.510;8.680;2024-01-27T12:31:54;98796.84;;;11.13;46.53
55171;BME280;41060;47.510;8.680;2024-01-27T12:34:21;98793.69;;;11.22;46.26
55171;BME280;41060;47.510;8.680;2024-01-27T12:36:48;98789.56;;;11.17;46.12
55171;BME280;41060;47.510;8.680;2024-01-27T12:39:17;98786.41;;;11.26;45.81
55171;BME280;41060;47.510;8.680;2024-01-27T12:41:46;98775.88;;;11.40;45.41
55171;BME280;41060;47.510;8.680;2024-01-27T12:44:14;98772.47;;;11.38;45.55
55171;BME280;41060;47.510;8.680;2024-01-27T12:46:41;98767.31;;;11.50;45.54
55171;BME280;41060;47.510;8.680;2024-01-27T12:49:07;98763.28;;;11.59;45.47
55171;BME280;41060;47.510;8.680;2024-01-27T12:51:34;98753.97;;;11.52;45.07
55171;BME280;41060;47.510;8.680;2024-01-27T12:54:01;98765.91;;;11.59;45.29
55171;BME280;41060;47.510;8.680;2024-01-27T12:56:30;98769.44;;;11.44;45.34
55171;BME280;41060;47.510;8.680;2024-01-27T12:58:58;98759.31;;;11.66;45.09
55171;BME280;41060;47.510;8.680;2024-01-27T13:01:27;98756.84;;;11.63;44.95
55171;BME280;41060;47.510;8.680;2024-01-27T13:03:53;98744.13;;;11.54;44.99
55171;BME280;41060;47.510;8.680;2024-01-27T13:06:19;98748.16;;;11.45;45.42
55171;BME280;41060;47.510;8.680;2024-01-27T13:08:48;98742.44;;;11.22;45.77
55171;BME280;41060;47.510;8.680;2024-01-27T13:11:16;98741.00;;;11.16;46.13
55171;BME280;41060;47.510;8.680;2024-01-27T13:13:42;98742.00;;;11.29;45.67
55171;BME280;41060;47.510;8.680;2024-01-27T13:16:10;98740.28;;;11.44;45.36
55171;BME280;41060;47.510;8.680;2024-01-27T13:18:38;98737.75;;;11.72;45.00
55171;BME280;41060;47.510;8.680;2024-01-27T13:21:05;98721.75;;;11.58;45.13
55171;BME280;41060;47.510;8.680;2024-01-27T13:23:32;98728.66;;;11.46;45.16
55171;BME280;41060;47.510;8.680;2024-01-27T13:25:59;98731.94;;;11.66;45.32
55171;BME280;41060;47.510;8.680;2024-01-27T13:28:25;98727.16;;;11.72;44.99
55171;BME280;41060;47.510;8.680;2024-01-27T13:30:52;98732.53;;;11.71;44.49
55171;BME280;41060;47.510;8.680;2024-01-27T13:33:19;98730.63;;;11.73;44.28
55171;BME280;41060;47.510;8.680;2024-01-27T13:35:47;98729.69;;;11.74;44.63
55171;BME280;41060;47.510;8.680;2024-01-27T13:38:14;98723.06;;;11.51;44.83
55171;BME280;41060;47.510;8.680;2024-01-27T13:40:41;98735.09;;;11.72;44.53
55171;BME280;41060;47.510;8.680;2024-01-27T13:43:08;98729.13;;;11.99;44.19
55171;BME280;41060;47.510;8.680;2024-01-27T13:45:35;98735.69;;;12.07;43.80
55171;BME280;41060;47.510;8.680;2024-01-27T13:48:02;98713.31;;;12.11;43.25
55171;BME280;41060;47.510;8.680;2024-01-27T13:50:28;98725.66;;;12.26;42.67
55171;BME280;41060;47.510;8.680;2024-01-27T13:52:58;98724.31;;;12.34;43.18
55171;BME280;41060;47.510;8.680;2024-01-27T13:55:25;98719.00;;;12.34;42.67
55171;BME280;41060;47.510;8.680;2024-01-27T13:57:52;98725.13;;;11.92;43.63
55171;BME280;41060;47.510;8.680;2024-01-27T14:00:20;98720.88;;;11.73;44.00